createdAt,value
2022-10-05T00:00:00.348Z,83.10
2022-10-05T00:05:00.485Z,83.02
2022-10-05T00:10:00.311Z,82.86
2022-10-05T00:15:00.389Z,82.90
2022-10-05T00:20:00.355Z,82.95
2022-10-05T00:25:00.337Z,82.98
2022-10-05T00:30:00.363Z,83.02
2022-10-05T00:35:00.374Z,83.08
2022-10-05T00:40:00.434Z,82.99
2022-10-05T00:45:00.379Z,83.03
2022-10-05T00:50:00.639Z,82.97
2022-10-05T00:55:00.448Z,82.91
2022-10-05T01:00:00.351Z,82.84
2022-10-05T01:05:00.405Z,82.71
2022-10-05T01:10:00.460Z,82.66
2022-10-05T01:15:00.364Z,82.71
2022-10-05T01:20:00.359Z,82.72
2022-10-05T01:25:02.687Z,82.70
2022-10-05T01:30:02.495Z,82.70
2022-10-05T01:35:02.430Z,82.68
2022-10-05T01:40:02.482Z,82.74
2022-10-05T01:45:02.356Z,82.70
2022-10-05T01:50:02.570Z,82.74
2022-10-05T01:55:02.389Z,82.79
2022-10-05T02:00:04.768Z,82.80
2022-10-05T02:05:04.451Z,82.84
2022-10-05T02:10:04.386Z,82.90
2022-10-05T02:15:04.490Z,82.88
2022-10-05T02:20:04.955Z,82.92
2022-10-05T02:25:06.495Z,82.99
2022-10-05T02:30:12.816Z,83.03
2022-10-05T02:35:10.684Z,83.10
2022-10-05T02:40:10.794Z,83.17
2022-10-05T02:45:10.859Z,83.21
2022-10-05T02:50:10.814Z,83.37
2022-10-05T02:55:12.398Z,83.47
2022-10-05T03:00:13.092Z,83.58
2022-10-05T03:05:13.777Z,83.61
2022-10-05T03:10:13.814Z,83.56
2022-10-05T03:15:13.744Z,83.48
2022-10-05T03:20:14.440Z,83.37
2022-10-05T03:25:14.931Z,83.31
2022-10-05T03:30:15.660Z,83.25
2022-10-05T03:35:16.417Z,83.21
2022-10-05T03:40:17.254Z,83.13
2022-10-05T03:45:17.718Z,83.10
2022-10-05T03:50:17.835Z,83.05
2022-10-05T03:55:17.887Z,83.00
2022-10-05T04:00:19.429Z,82.97
2022-10-05T04:05:19.835Z,82.95
2022-10-05T04:10:20.233Z,83.03
2022-10-05T04:15:20.898Z,83.10
2022-10-05T04:20:20.809Z,83.06
2022-10-05T04:25:20.992Z,82.99
2022-10-05T04:30:23.599Z,83.01
2022-10-05T04:35:23.718Z,83.01
2022-10-05T04:40:24.181Z,82.94
2022-10-05T04:45:25.151Z,82.84
2022-10-05T04:50:33.465Z,82.77
2022-10-05T04:55:33.653Z,82.75
2022-10-05T05:00:33.597Z,82.70
2022-10-05T05:05:33.759Z,82.67
2022-10-05T05:10:34.891Z,82.61
2022-10-05T05:15:35.147Z,82.57
2022-10-05T05:20:35.795Z,82.47
2022-10-05T05:25:35.626Z,82.35
2022-10-05T05:30:35.903Z,82.34
2022-10-05T05:35:35.807Z,82.28
2022-10-05T05:40:39.168Z,82.21
2022-10-05T05:45:40.159Z,82.05
2022-10-05T05:50:40.846Z,81.96
2022-10-05T05:55:42.261Z,81.78
2022-10-05T06:00:42.662Z,81.71
2022-10-05T06:05:42.785Z,81.67
2022-10-05T06:10:44.339Z,81.54
2022-10-05T06:15:45.596Z,81.40
2022-10-05T06:20:45.675Z,81.21
2022-10-05T06:25:45.787Z,80.97
2022-10-05T06:30:45.850Z,80.77
2022-10-05T06:35:45.759Z,80.62
2022-10-05T06:40:45.917Z,80.34
2022-10-05T06:45:56.552Z,80.10
2022-10-05T06:51:04.147Z,79.72
2022-10-05T06:56:05.556Z,79.51
2022-10-05T07:01:06.296Z,79.12
2022-10-05T07:06:07.122Z,78.83
2022-10-05T07:11:08.730Z,78.24
2022-10-05T07:16:09.377Z,78.00
2022-10-05T07:21:09.761Z,77.74
2022-10-05T07:26:09.967Z,77.51
2022-10-05T07:31:09.966Z,77.42
2022-10-05T07:36:28.020Z,77.25
2022-10-05T07:41:27.891Z,76.57
2022-10-05T07:46:27.782Z,76.30
2022-10-05T07:51:28.003Z,75.89
2022-10-05T07:56:27.964Z,75.65
2022-10-05T08:01:29.747Z,75.42
2022-10-05T08:06:29.738Z,75.41
2022-10-05T08:11:29.979Z,75.39
2022-10-05T08:16:29.787Z,75.14
2022-10-05T08:21:29.661Z,74.96
2022-10-05T08:26:29.710Z,74.40
2022-10-05T08:31:31.314Z,73.84
2022-10-05T08:36:31.627Z,73.00
2022-10-05T08:41:31.630Z,72.22
2022-10-05T08:46:31.808Z,71.79
2022-10-05T08:51:31.807Z,70.95
2022-10-05T08:56:31.819Z,70.02
2022-10-05T09:01:31.883Z,69.04
2022-10-05T09:06:32.993Z,68.82
2022-10-05T09:11:32.735Z,67.90
2022-10-05T09:16:32.718Z,67.39
2022-10-05T09:21:32.787Z,66.83
2022-10-05T09:26:32.872Z,66.37
2022-10-05T09:32:11.718Z,66.15
2022-10-05T09:37:11.241Z,66.02
2022-10-05T09:42:11.839Z,65.95
2022-10-05T09:47:11.724Z,65.89
2022-10-05T09:52:16.432Z,65.12
2022-10-05T09:57:13.805Z,64.81
2022-10-05T10:02:15.912Z,64.29
2022-10-05T10:07:15.830Z,64.26
2022-10-05T10:12:15.793Z,63.63
2022-10-05T10:17:15.833Z,63.56
2022-10-05T10:22:15.838Z,63.73
2022-10-05T10:27:16.452Z,63.61
2022-10-05T10:32:16.887Z,63.28
2022-10-05T10:37:16.777Z,62.79
2022-10-05T10:42:16.840Z,61.69
2022-10-05T10:47:16.783Z,60.39
2022-10-05T10:52:16.786Z,58.84
2022-10-05T10:57:16.946Z,58.37
2022-10-05T11:02:17.007Z,57.18
2022-10-05T11:07:16.819Z,56.67
2022-10-05T11:12:21.516Z,57.87
2022-10-05T11:17:21.829Z,59.06
2022-10-05T11:22:21.961Z,59.57
2022-10-05T11:32:21.821Z,61.20
2022-10-05T11:37:21.984Z,62.48
2022-10-05T11:42:21.903Z,63.42
2022-10-05T11:47:21.892Z,63.97
2022-10-05T11:52:21.825Z,64.44
2022-10-05T11:57:21.908Z,64.86
2022-10-05T12:02:21.836Z,65.50
2022-10-05T12:07:21.956Z,65.98
2022-10-05T12:12:22.122Z,65.90
2022-10-05T12:17:21.973Z,66.40
2022-10-05T12:22:22.052Z,66.57
2022-10-05T12:27:21.950Z,66.71
2022-10-05T12:32:21.922Z,66.43
2022-10-05T12:37:21.951Z,66.22
2022-10-05T12:42:21.892Z,66.02
2022-10-05T12:47:23.206Z,65.56
2022-10-05T12:52:22.899Z,65.23
2022-10-05T12:57:23.026Z,64.69
2022-10-05T13:02:23.803Z,64.13
2022-10-05T13:07:23.922Z,64.02
2022-10-05T13:12:25.504Z,63.87
2022-10-05T13:17:25.960Z,63.68
2022-10-05T13:22:25.959Z,63.59
2022-10-05T13:27:27.378Z,63.50
2022-10-05T13:32:27.982Z,63.26
2022-10-05T13:37:28.195Z,63.31
2022-10-05T13:42:27.940Z,63.37
2022-10-05T13:47:28.005Z,63.41
2022-10-05T13:52:27.917Z,63.62
2022-10-05T13:57:28.018Z,63.65
2022-10-05T14:02:28.134Z,63.62
2022-10-05T14:07:28.025Z,63.83
2022-10-05T14:12:28.218Z,63.90
2022-10-05T14:17:32.154Z,63.94
2022-10-05T14:22:30.039Z,64.26
2022-10-05T14:27:33.044Z,64.49
2022-10-05T14:32:32.997Z,64.39
2022-10-05T14:37:32.967Z,64.44
2022-10-05T14:42:33.007Z,64.55
2022-10-05T14:47:33.842Z,64.54
2022-10-05T14:52:35.400Z,64.93
2022-10-05T14:57:36.894Z,65.19
2022-10-05T15:02:37.147Z,65.38
2022-10-05T15:07:38.130Z,65.49
2022-10-05T15:12:38.062Z,65.65
2022-10-05T15:17:38.062Z,65.89
2022-10-05T15:22:40.019Z,66.07
2022-10-05T15:27:40.157Z,66.16
2022-10-05T15:32:41.665Z,66.26
2022-10-05T15:37:42.149Z,66.09
2022-10-05T15:42:43.521Z,66.04
2022-10-05T15:47:44.036Z,65.99
2022-10-05T15:52:44.029Z,66.00
2022-10-05T15:57:45.048Z,66.16
2022-10-05T16:02:45.104Z,66.36
2022-10-05T16:08:03.381Z,66.51
2022-10-05T16:13:03.981Z,66.70
2022-10-05T16:18:04.070Z,66.90
2022-10-05T16:23:04.161Z,66.96
2022-10-05T16:28:05.637Z,67.13
2022-10-05T16:33:06.465Z,67.30
2022-10-05T16:38:06.002Z,67.42
2022-10-05T16:43:05.981Z,67.42
2022-10-05T16:48:06.304Z,67.29
2022-10-05T16:53:06.020Z,67.32
2022-10-05T16:58:05.980Z,67.34
2022-10-05T17:03:07.732Z,67.69
2022-10-05T17:08:08.185Z,68.06
2022-10-05T17:13:09.847Z,68.44
2022-10-05T17:18:10.739Z,68.92
2022-10-05T17:23:10.909Z,69.31
2022-10-05T17:28:11.498Z,69.57
2022-10-05T17:33:13.614Z,69.69
2022-10-05T17:38:13.980Z,69.64
2022-10-05T17:43:13.961Z,69.64
2022-10-05T17:48:13.930Z,69.76
2022-10-05T17:53:32.145Z,69.89
2022-10-05T17:58:32.246Z,69.90
2022-10-05T18:03:31.978Z,70.01
2022-10-05T18:08:33.213Z,69.80
2022-10-05T18:13:33.032Z,69.96
2022-10-05T18:18:33.023Z,70.03
2022-10-05T18:23:35.171Z,69.88
2022-10-05T18:28:35.147Z,69.79
2022-10-05T18:33:35.072Z,69.86
2022-10-05T18:38:34.953Z,70.00
2022-10-05T18:43:35.214Z,70.10
2022-10-05T18:48:35.315Z,70.20
2022-10-05T18:53:35.079Z,70.20
2022-10-05T18:58:35.509Z,70.20
2022-10-05T19:03:35.053Z,70.28
2022-10-05T19:08:35.371Z,70.35
2022-10-05T19:13:36.929Z,70.40
2022-10-05T19:18:38.313Z,70.45
2022-10-05T19:23:38.059Z,70.50
2022-10-05T19:28:38.241Z,70.57
2022-10-05T19:33:38.445Z,70.62
2022-10-05T19:38:38.044Z,70.69
2022-10-05T19:43:38.021Z,70.62
2022-10-05T19:48:39.316Z,70.52
2022-10-05T19:53:40.303Z,70.40
2022-10-05T19:58:40.096Z,70.42
2022-10-05T20:03:42.001Z,70.21
2022-10-05T20:08:43.300Z,70.00
2022-10-05T20:13:43.134Z,70.00
2022-10-05T20:19:01.404Z,70.08
2022-10-05T20:24:01.453Z,70.15
2022-10-05T20:29:01.106Z,70.15
2022-10-05T20:34:01.088Z,70.21
2022-10-05T20:39:01.114Z,70.25
2022-10-05T20:44:01.135Z,70.19
2022-10-05T20:49:02.069Z,70.28
2022-10-05T20:54:02.152Z,70.22
2022-10-05T20:59:05.206Z,70.26
2022-10-05T21:04:06.450Z,70.12
2022-10-05T21:09:08.025Z,70.09
2022-10-05T21:14:08.147Z,69.93
2022-10-05T21:19:08.896Z,69.89
2022-10-05T21:24:09.132Z,69.71
2022-10-05T21:29:12.524Z,69.55
2022-10-05T21:34:11.142Z,69.38
2022-10-05T21:39:11.203Z,69.36
2022-10-05T21:44:11.137Z,69.67
2022-10-05T21:49:12.674Z,70.04
2022-10-05T21:54:13.137Z,70.43
2022-10-05T21:59:13.208Z,70.81
2022-10-05T22:04:14.591Z,71.11
2022-10-05T22:09:14.197Z,71.61
2022-10-05T22:14:14.601Z,72.98
2022-10-05T22:19:14.205Z,74.18
2022-10-05T22:24:14.145Z,75.41
2022-10-05T22:29:14.415Z,76.48
2022-10-05T22:34:14.421Z,77.10
2022-10-05T22:39:14.128Z,77.83
2022-10-05T22:44:14.202Z,78.16
2022-10-05T22:49:14.217Z,78.47
2022-10-05T22:54:14.163Z,78.74
2022-10-05T22:59:14.399Z,79.18
2022-10-05T23:04:14.222Z,79.42
2022-10-05T23:09:14.173Z,79.50
2022-10-05T23:14:14.213Z,79.67
2022-10-05T23:19:14.166Z,79.69
2022-10-05T23:24:14.174Z,79.49
2022-10-05T23:29:14.216Z,79.34
2022-10-05T23:34:14.182Z,79.42
2022-10-05T23:39:14.319Z,80.30
2022-10-05T23:44:14.199Z,81.11
2022-10-05T23:49:14.638Z,81.64
2022-10-05T23:54:14.212Z,81.87
2022-10-05T23:59:14.327Z,82.10
